Terminal Aerodrome Forecast
Issued by NWS

Home | Current Version | Previous Version | Text Only | Print | Product List | Glossary On
Versions: 1 2 3 4 5 6 7 8 9 10 11 12
000
FTUS42 KILM 201100
TAFCRE
TAF
KCRE 201136Z 2012/2112 05005KT 6SM -RA SCT040 OVC070
      TEMPO 2013/2016 5SM RA SCT015 BKN040
     FM201600 05006KT 4SM -RA BKN018 OVC040
     FM201800 05006KT 4SM -RA BR SCT007 BKN012 OVC020
     FM202000 03006KT 3SM BR BKN007 BKN020 OVC050
     FM211000 02006KT 4SM BR SCT006 SCT015 BKN060=

USA.gov is the U.S. government's official web portal to all federal, state and local government web resources and services.